Cartier, Canada
Current Conditions -  °F | °C
As of 3:00 PM on Friday 24 Oct 2014 (Local Time) from CYSB Reporting Station
Broken Clouds Broken Clouds  
Wind Chill: 50°   Ceiling: 2200
Heat Index: 50°   Visibility: 20mi
Dew Point: 36°   Wind: 7mph
Humidity: 58%   Direction: 230°SW
Pressure: 29.92"   Gusts: NA
Location:  46.7°N, 81.55°W
Report Text: CYSB 241900Z 23006KT 20SM BKN022 10/02 A2992 RMK SC7 SLP143
Loading
Personal Weather Stations






























Interactive Weather Map
Tropical Storm Tracking
New forecast layout! Learn more

10-Day Weather Forecast

Advertisements
Track Severe Weather on mobile